sensor_id;sensor_type;location;lat;lon;timestamp;P1;durP1;ratioP1;P2;durP2;ratioP2
56267;SDS011;42175;46.930;9.532;2022-12-10T00:01:12;18.50;;;9.65;;
56267;SDS011;42175;46.930;9.532;2022-12-10T00:03:40;17.83;;;10.13;;
56267;SDS011;42175;46.930;9.532;2022-12-10T00:06:07;15.45;;;9.70;;
56267;SDS011;42175;46.930;9.532;2022-12-10T00:08:36;12.80;;;9.23;;
56267;SDS011;42175;46.930;9.532;2022-12-10T00:11:02;16.30;;;9.30;;
56267;SDS011;42175;46.930;9.532;2022-12-10T00:13:30;13.88;;;9.65;;
56267;SDS011;42175;46.930;9.532;2022-12-10T00:16:01;23.52;;;10.45;;
56267;SDS011;42175;46.930;9.532;2022-12-10T00:18:28;17.75;;;9.15;;
56267;SDS011;42175;46.930;9.532;2022-12-10T00:20:54;11.80;;;9.30;;
56267;SDS011;42175;46.930;9.532;2022-12-10T00:23:20;15.75;;;8.95;;
56267;SDS011;42175;46.930;9.532;2022-12-10T00:25:45;16.48;;;10.07;;
56267;SDS011;42175;46.930;9.532;2022-12-10T00:28:12;12.65;;;8.85;;
56267;SDS011;42175;46.930;9.532;2022-12-10T00:30:38;11.00;;;8.70;;
56267;SDS011;42175;46.930;9.532;2022-12-10T00:33:03;10.95;;;8.43;;
56267;SDS011;42175;46.930;9.532;2022-12-10T00:35:29;11.73;;;8.73;;
56267;SDS011;42175;46.930;9.532;2022-12-10T00:37:55;9.95;;;7.53;;
56267;SDS011;42175;46.930;9.532;2022-12-10T00:40:21;12.57;;;9.25;;
56267;SDS011;42175;46.930;9.532;2022-12-10T00:42:47;12.38;;;8.55;;
56267;SDS011;42175;46.930;9.532;2022-12-10T00:45:13;12.63;;;8.82;;
56267;SDS011;42175;46.930;9.532;2022-12-10T00:47:38;15.43;;;8.73;;
56267;SDS011;42175;46.930;9.532;2022-12-10T00:50:04;12.95;;;9.18;;
56267;SDS011;42175;46.930;9.532;2022-12-10T00:52:30;13.18;;;10.18;;
56267;SDS011;42175;46.930;9.532;2022-12-10T00:54:56;11.55;;;9.02;;
56267;SDS011;42175;46.930;9.532;2022-12-10T00:57:21;13.60;;;8.60;;
56267;SDS011;42175;46.930;9.532;2022-12-10T00:59:47;12.13;;;8.77;;
56267;SDS011;42175;46.930;9.532;2022-12-10T01:02:13;12.52;;;9.00;;
56267;SDS011;42175;46.930;9.532;2022-12-10T01:04:38;13.65;;;8.68;;
56267;SDS011;42175;46.930;9.532;2022-12-10T01:07:04;14.27;;;9.10;;
56267;SDS011;42175;46.930;9.532;2022-12-10T01:09:30;12.75;;;8.38;;
56267;SDS011;42175;46.930;9.532;2022-12-10T01:11:56;11.20;;;8.77;;
56267;SDS011;42175;46.930;9.532;2022-12-10T01:14:28;11.60;;;8.27;;
56267;SDS011;42175;46.930;9.532;2022-12-10T01:16:57;12.07;;;9.20;;
56267;SDS011;42175;46.930;9.532;2022-12-10T01:19:25;11.98;;;9.55;;
56267;SDS011;42175;46.930;9.532;2022-12-10T01:21:54;10.52;;;8.38;;
56267;SDS011;42175;46.930;9.532;2022-12-10T01:24:24;14.23;;;8.05;;
56267;SDS011;42175;46.930;9.532;2022-12-10T01:26:51;10.95;;;8.18;;
56267;SDS011;42175;46.930;9.532;2022-12-10T01:29:17;10.90;;;8.23;;
56267;SDS011;42175;46.930;9.532;2022-12-10T01:31:43;11.95;;;8.55;;
56267;SDS011;42175;46.930;9.532;2022-12-10T01:34:11;11.82;;;8.68;;
56267;SDS011;42175;46.930;9.532;2022-12-10T01:36:44;12.15;;;8.50;;
56267;SDS011;42175;46.930;9.532;2022-12-10T01:39:15;9.25;;;7.70;;
56267;SDS011;42175;46.930;9.532;2022-12-10T01:46:42;12.60;;;8.93;;
56267;SDS011;42175;46.930;9.532;2022-12-10T01:49:11;13.43;;;8.50;;
56267;SDS011;42175;46.930;9.532;2022-12-10T01:51:41;14.68;;;8.75;;
56267;SDS011;42175;46.930;9.532;2022-12-10T01:54:10;14.70;;;8.50;;
56267;SDS011;42175;46.930;9.532;2022-12-10T01:56:41;10.48;;;8.32;;
56267;SDS011;42175;46.930;9.532;2022-12-10T01:59:10;13.10;;;8.80;;
56267;SDS011;42175;46.930;9.532;2022-12-10T02:07:00;13.38;;;8.18;;
56267;SDS011;42175;46.930;9.532;2022-12-10T02:09:35;10.50;;;8.40;;
56267;SDS011;42175;46.930;9.532;2022-12-10T02:12:39;12.45;;;7.50;;
56267;SDS011;42175;46.930;9.532;2022-12-10T02:15:19;10.65;;;8.90;;
56267;SDS011;42175;46.930;9.532;2022-12-10T02:17:53;10.65;;;8.55;;
56267;SDS011;42175;46.930;9.532;2022-12-10T02:20:28;13.43;;;8.85;;
56267;SDS011;42175;46.930;9.532;2022-12-10T02:23:03;8.65;;;7.30;;
56267;SDS011;42175;46.930;9.532;2022-12-10T02:25:45;11.25;;;7.85;;
56267;SDS011;42175;46.930;9.532;2022-12-10T02:28:37;10.15;;;8.18;;
56267;SDS011;42175;46.930;9.532;2022-12-10T02:31:10;14.15;;;8.60;;
56267;SDS011;42175;46.930;9.532;2022-12-10T02:33:40;13.93;;;8.07;;
56267;SDS011;42175;46.930;9.532;2022-12-10T02:36:10;10.55;;;7.57;;
56267;SDS011;42175;46.930;9.532;2022-12-10T02:38:38;10.27;;;7.80;;
56267;SDS011;42175;46.930;9.532;2022-12-10T02:41:12;10.68;;;8.00;;
56267;SDS011;42175;46.930;9.532;2022-12-10T02:43:41;9.90;;;8.27;;
56267;SDS011;42175;46.930;9.532;2022-12-10T02:46:13;10.52;;;8.02;;
56267;SDS011;42175;46.930;9.532;2022-12-10T02:48:39;9.77;;;7.90;;
56267;SDS011;42175;46.930;9.532;2022-12-10T02:51:06;10.43;;;7.97;;
56267;SDS011;42175;46.930;9.532;2022-12-10T02:53:31;10.65;;;8.00;;
56267;SDS011;42175;46.930;9.532;2022-12-10T02:56:05;11.70;;;8.48;;
56267;SDS011;42175;46.930;9.532;2022-12-10T03:01:45;10.27;;;7.80;;
56267;SDS011;42175;46.930;9.532;2022-12-10T03:04:23;9.63;;;8.15;;
56267;SDS011;42175;46.930;9.532;2022-12-10T03:07:03;12.07;;;8.30;;
56267;SDS011;42175;46.930;9.532;2022-12-10T03:09:48;12.85;;;8.40;;
56267;SDS011;42175;46.930;9.532;2022-12-10T03:12:22;9.35;;;7.85;;
56267;SDS011;42175;46.930;9.532;2022-12-10T03:14:57;9.85;;;8.18;;
56267;SDS011;42175;46.930;9.532;2022-12-10T03:17:26;9.90;;;8.35;;
56267;SDS011;42175;46.930;9.532;2022-12-10T03:19:53;9.98;;;7.53;;
56267;SDS011;42175;46.930;9.532;2022-12-10T03:22:22;13.13;;;8.13;;
56267;SDS011;42175;46.930;9.532;2022-12-10T03:24:48;11.35;;;7.50;;
56267;SDS011;42175;46.930;9.532;2022-12-10T03:27:15;13.13;;;8.48;;
56267;SDS011;42175;46.930;9.532;2022-12-10T03:29:46;12.02;;;8.68;;
56267;SDS011;42175;46.930;9.532;2022-12-10T03:32:15;11.10;;;8.07;;
56267;SDS011;42175;46.930;9.532;2022-12-10T03:34:43;10.07;;;7.35;;
56267;SDS011;42175;46.930;9.532;2022-12-10T03:37:10;12.38;;;8.20;;
56267;SDS011;42175;46.930;9.532;2022-12-10T03:39:36;10.63;;;8.35;;
56267;SDS011;42175;46.930;9.532;2022-12-10T03:42:03;10.50;;;7.97;;
56267;SDS011;42175;46.930;9.532;2022-12-10T03:44:31;30.80;;;8.77;;
56267;SDS011;42175;46.930;9.532;2022-12-10T03:46:59;14.10;;;7.93;;
56267;SDS011;42175;46.930;9.532;2022-12-10T03:49:26;10.05;;;7.70;;
56267;SDS011;42175;46.930;9.532;2022-12-10T03:51:52;12.10;;;9.10;;
56267;SDS011;42175;46.930;9.532;2022-12-10T03:54:18;9.85;;;8.00;;
56267;SDS011;42175;46.930;9.532;2022-12-10T03:56:44;9.55;;;8.00;;
56267;SDS011;42175;46.930;9.532;2022-12-10T03:59:09;10.32;;;8.57;;
56267;SDS011;42175;46.930;9.532;2022-12-10T04:01:35;9.88;;;8.30;;
56267;SDS011;42175;46.930;9.532;2022-12-10T04:04:02;9.82;;;7.22;;
56267;SDS011;42175;46.930;9.532;2022-12-10T04:06:28;10.50;;;7.72;;
56267;SDS011;42175;46.930;9.532;2022-12-10T04:08:54;8.13;;;6.93;;
56267;SDS011;42175;46.930;9.532;2022-12-10T04:11:20;11.05;;;8.02;;
56267;SDS011;42175;46.930;9.532;2022-12-10T04:13:45;9.20;;;7.78;;
56267;SDS011;42175;46.930;9.532;2022-12-10T04:16:30;9.73;;;7.43;;
56267;SDS011;42175;46.930;9.532;2022-12-10T04:18:58;12.15;;;8.30;;
56267;SDS011;42175;46.930;9.532;2022-12-10T04:21:35;9.27;;;7.88;;
56267;SDS011;42175;46.930;9.532;2022-12-10T04:24:23;9.30;;;8.05;;
56267;SDS011;42175;46.930;9.532;2022-12-10T04:27:18;17.63;;;8.70;;
56267;SDS011;42175;46.930;9.532;2022-12-10T04:29:55;9.25;;;7.07;;
56267;SDS011;42175;46.930;9.532;2022-12-10T04:32:22;10.57;;;7.65;;
56267;SDS011;42175;46.930;9.532;2022-12-10T04:34:49;9.68;;;7.53;;
56267;SDS011;42175;46.930;9.532;2022-12-10T04:37:16;11.07;;;7.88;;
56267;SDS011;42175;46.930;9.532;2022-12-10T04:39:42;10.65;;;8.65;;
56267;SDS011;42175;46.930;9.532;2022-12-10T04:42:09;9.80;;;8.35;;
56267;SDS011;42175;46.930;9.532;2022-12-10T04:44:35;11.23;;;7.63;;
56267;SDS011;42175;46.930;9.532;2022-12-10T04:47:03;9.93;;;8.43;;
56267;SDS011;42175;46.930;9.532;2022-12-10T04:49:29;9.15;;;7.80;;
56267;SDS011;42175;46.930;9.532;2022-12-10T04:51:55;9.48;;;8.00;;
56267;SDS011;42175;46.930;9.532;2022-12-10T04:54:21;9.02;;;7.47;;
56267;SDS011;42175;46.930;9.532;2022-12-10T04:56:47;11.85;;;7.80;;
56267;SDS011;42175;46.930;9.532;2022-12-10T04:59:13;10.18;;;7.22;;
56267;SDS011;42175;46.930;9.532;2022-12-10T05:01:39;8.98;;;7.95;;
56267;SDS011;42175;46.930;9.532;2022-12-10T05:04:06;9.68;;;7.70;;
56267;SDS011;42175;46.930;9.532;2022-12-10T05:06:33;7.95;;;7.13;;
56267;SDS011;42175;46.930;9.532;2022-12-10T05:08:59;10.90;;;7.75;;
56267;SDS011;42175;46.930;9.532;2022-12-10T05:11:26;10.85;;;7.85;;
56267;SDS011;42175;46.930;9.532;2022-12-10T05:13:54;8.73;;;7.18;;
56267;SDS011;42175;46.930;9.532;2022-12-10T05:16:21;10.73;;;8.02;;
56267;SDS011;42175;46.930;9.532;2022-12-10T05:18:47;9.60;;;7.50;;
56267;SDS011;42175;46.930;9.532;2022-12-10T05:21:15;10.05;;;8.27;;
56267;SDS011;42175;46.930;9.532;2022-12-10T05:23:44;10.70;;;7.43;;
56267;SDS011;42175;46.930;9.532;2022-12-10T05:26:13;11.50;;;8.23;;
56267;SDS011;42175;46.930;9.532;2022-12-10T05:28:41;10.52;;;7.75;;
56267;SDS011;42175;46.930;9.532;2022-12-10T05:31:13;10.77;;;8.50;;
56267;SDS011;42175;46.930;9.532;2022-12-10T05:33:41;9.07;;;7.50;;
56267;SDS011;42175;46.930;9.532;2022-12-10T05:36:07;12.32;;;7.82;;
56267;SDS011;42175;46.930;9.532;2022-12-10T05:38:36;10.25;;;7.75;;
56267;SDS011;42175;46.930;9.532;2022-12-10T05:41:12;10.60;;;8.30;;
56267;SDS011;42175;46.930;9.532;2022-12-10T05:43:44;11.27;;;8.27;;
56267;SDS011;42175;46.930;9.532;2022-12-10T05:46:27;11.32;;;8.32;;
56267;SDS011;42175;46.930;9.532;2022-12-10T05:51:22;13.93;;;8.65;;
56267;SDS011;42175;46.930;9.532;2022-12-10T05:53:50;10.27;;;8.40;;
56267;SDS011;42175;46.930;9.532;2022-12-10T05:56:17;10.98;;;7.65;;
56267;SDS011;42175;46.930;9.532;2022-12-10T05:58:45;14.65;;;8.68;;
56267;SDS011;42175;46.930;9.532;2022-12-10T06:01:18;14.10;;;10.07;;
56267;SDS011;42175;46.930;9.532;2022-12-10T06:03:46;11.60;;;9.40;;
56267;SDS011;42175;46.930;9.532;2022-12-10T06:06:19;10.85;;;8.57;;
56267;SDS011;42175;46.930;9.532;2022-12-10T06:08:49;11.93;;;8.63;;
56267;SDS011;42175;46.930;9.532;2022-12-10T06:11:16;9.38;;;7.95;;
56267;SDS011;42175;46.930;9.532;2022-12-10T06:13:41;9.68;;;7.93;;
56267;SDS011;42175;46.930;9.532;2022-12-10T06:16:08;11.30;;;8.77;;
56267;SDS011;42175;46.930;9.532;2022-12-10T06:18:35;13.35;;;9.23;;
56267;SDS011;42175;46.930;9.532;2022-12-10T06:21:03;12.38;;;8.90;;
56267;SDS011;42175;46.930;9.532;2022-12-10T06:23:29;12.77;;;8.85;;
56267;SDS011;42175;46.930;9.532;2022-12-10T06:25:55;13.60;;;8.45;;
56267;SDS011;42175;46.930;9.532;2022-12-10T06:28:21;12.23;;;8.75;;
56267;SDS011;42175;46.930;9.532;2022-12-10T06:30:46;10.70;;;8.48;;
56267;SDS011;42175;46.930;9.532;2022-12-10T06:33:12;12.38;;;8.55;;
56267;SDS011;42175;46.930;9.532;2022-12-10T06:35:38;10.30;;;8.85;;
56267;SDS011;42175;46.930;9.532;2022-12-10T06:38:03;10.98;;;7.43;;
56267;SDS011;42175;46.930;9.532;2022-12-10T06:40:29;30.33;;;12.40;;
56267;SDS011;42175;46.930;9.532;2022-12-10T06:42:55;21.63;;;11.80;;
56267;SDS011;42175;46.930;9.532;2022-12-10T06:45:20;27.15;;;11.85;;
56267;SDS011;42175;46.930;9.532;2022-12-10T06:47:46;26.27;;;10.68;;
56267;SDS011;42175;46.930;9.532;2022-12-10T06:50:12;20.88;;;9.98;;
56267;SDS011;42175;46.930;9.532;2022-12-10T06:52:37;20.05;;;10.75;;
56267;SDS011;42175;46.930;9.532;2022-12-10T06:55:03;17.63;;;8.82;;
56267;SDS011;42175;46.930;9.532;2022-12-10T06:57:29;23.38;;;10.68;;
56267;SDS011;42175;46.930;9.532;2022-12-10T06:59:55;19.83;;;9.23;;
56267;SDS011;42175;46.930;9.532;2022-12-10T07:02:21;21.25;;;9.40;;
56267;SDS011;42175;46.930;9.532;2022-12-10T07:04:46;25.42;;;18.67;;
56267;SDS011;42175;46.930;9.532;2022-12-10T07:07:12;89.82;;;80.03;;
56267;SDS011;42175;46.930;9.532;2022-12-10T07:09:38;63.63;;;56.85;;
56267;SDS011;42175;46.930;9.532;2022-12-10T07:12:04;71.35;;;62.10;;
56267;SDS011;42175;46.930;9.532;2022-12-10T07:14:29;47.45;;;41.53;;
56267;SDS011;42175;46.930;9.532;2022-12-10T07:16:55;42.33;;;30.60;;
56267;SDS011;42175;46.930;9.532;2022-12-10T07:19:22;48.30;;;32.10;;
56267;SDS011;42175;46.930;9.532;2022-12-10T07:21:47;45.53;;;30.15;;
56267;SDS011;42175;46.930;9.532;2022-12-10T07:24:15;38.92;;;29.35;;
56267;SDS011;42175;46.930;9.532;2022-12-10T07:26:43;37.35;;;25.77;;
56267;SDS011;42175;46.930;9.532;2022-12-10T07:29:15;35.50;;;24.35;;
56267;SDS011;42175;46.930;9.532;2022-12-10T07:31:42;43.20;;;23.83;;
56267;SDS011;42175;46.930;9.532;2022-12-10T07:34:09;34.70;;;22.83;;
56267;SDS011;42175;46.930;9.532;2022-12-10T07:36:35;35.25;;;21.95;;
56267;SDS011;42175;46.930;9.532;2022-12-10T07:39:01;32.83;;;22.08;;
56267;SDS011;42175;46.930;9.532;2022-12-10T07:41:29;37.45;;;19.73;;
56267;SDS011;42175;46.930;9.532;2022-12-10T07:43:55;37.17;;;21.58;;
56267;SDS011;42175;46.930;9.532;2022-12-10T07:46:22;40.47;;;19.10;;
56267;SDS011;42175;46.930;9.532;2022-12-10T07:48:49;31.05;;;17.50;;
56267;SDS011;42175;46.930;9.532;2022-12-10T07:51:16;33.22;;;17.20;;
56267;SDS011;42175;46.930;9.532;2022-12-10T07:53:43;39.05;;;18.10;;
56267;SDS011;42175;46.930;9.532;2022-12-10T07:56:09;30.52;;;17.05;;
56267;SDS011;42175;46.930;9.532;2022-12-10T07:58:36;39.53;;;15.98;;
56267;SDS011;42175;46.930;9.532;2022-12-10T08:01:06;23.25;;;14.88;;
56267;SDS011;42175;46.930;9.532;2022-12-10T08:03:36;27.10;;;14.52;;
56267;SDS011;42175;46.930;9.532;2022-12-10T08:06:03;26.67;;;14.63;;
56267;SDS011;42175;46.930;9.532;2022-12-10T08:08:32;23.23;;;14.23;;
56267;SDS011;42175;46.930;9.532;2022-12-10T08:11:00;32.03;;;15.32;;
56267;SDS011;42175;46.930;9.532;2022-12-10T08:13:27;25.70;;;13.05;;
56267;SDS011;42175;46.930;9.532;2022-12-10T08:15:53;24.95;;;13.30;;
56267;SDS011;42175;46.930;9.532;2022-12-10T08:18:20;19.17;;;11.85;;
56267;SDS011;42175;46.930;9.532;2022-12-10T08:20:46;18.63;;;12.80;;
56267;SDS011;42175;46.930;9.532;2022-12-10T08:23:12;24.55;;;12.60;;
56267;SDS011;42175;46.930;9.532;2022-12-10T08:25:37;19.45;;;11.00;;
56267;SDS011;42175;46.930;9.532;2022-12-10T08:28:03;23.35;;;11.18;;
56267;SDS011;42175;46.930;9.532;2022-12-10T08:30:29;16.73;;;10.82;;
56267;SDS011;42175;46.930;9.532;2022-12-10T08:32:55;17.17;;;10.43;;
56267;SDS011;42175;46.930;9.532;2022-12-10T08:35:21;21.30;;;10.38;;
56267;SDS011;42175;46.930;9.532;2022-12-10T08:37:46;21.65;;;11.05;;
56267;SDS011;42175;46.930;9.532;2022-12-10T08:40:12;20.38;;;9.88;;
56267;SDS011;42175;46.930;9.532;2022-12-10T08:42:38;17.75;;;9.95;;
56267;SDS011;42175;46.930;9.532;2022-12-10T08:45:04;18.42;;;10.15;;
56267;SDS011;42175;46.930;9.532;2022-12-10T08:47:31;24.50;;;10.48;;
56267;SDS011;42175;46.930;9.532;2022-12-10T08:49:56;16.20;;;10.15;;
56267;SDS011;42175;46.930;9.532;2022-12-10T08:52:22;19.73;;;9.82;;
56267;SDS011;42175;46.930;9.532;2022-12-10T08:54:47;21.83;;;9.80;;
56267;SDS011;42175;46.930;9.532;2022-12-10T08:57:13;16.52;;;10.50;;
56267;SDS011;42175;46.930;9.532;2022-12-10T08:59:39;20.88;;;10.30;;
56267;SDS011;42175;46.930;9.532;2022-12-10T09:02:04;16.52;;;9.07;;
56267;SDS011;42175;46.930;9.532;2022-12-10T09:04:30;16.13;;;9.70;;
56267;SDS011;42175;46.930;9.532;2022-12-10T09:06:56;18.05;;;9.30;;
56267;SDS011;42175;46.930;9.532;2022-12-10T09:09:21;16.85;;;9.05;;
56267;SDS011;42175;46.930;9.532;2022-12-10T09:11:47;17.27;;;9.00;;
56267;SDS011;42175;46.930;9.532;2022-12-10T09:14:13;16.00;;;8.02;;
56267;SDS011;42175;46.930;9.532;2022-12-10T09:16:39;14.45;;;9.02;;
56267;SDS011;42175;46.930;9.532;2022-12-10T09:19:05;19.48;;;8.65;;
56267;SDS011;42175;46.930;9.532;2022-12-10T09:21:31;17.40;;;8.75;;
56267;SDS011;42175;46.930;9.532;2022-12-10T09:23:57;19.13;;;9.50;;
56267;SDS011;42175;46.930;9.532;2022-12-10T09:26:24;18.98;;;9.73;;
56267;SDS011;42175;46.930;9.532;2022-12-10T09:28:51;17.25;;;8.93;;
56267;SDS011;42175;46.930;9.532;2022-12-10T09:31:18;20.65;;;7.95;;
56267;SDS011;42175;46.930;9.532;2022-12-10T09:33:46;22.20;;;10.80;;
56267;SDS011;42175;46.930;9.532;2022-12-10T09:36:13;20.95;;;8.82;;
56267;SDS011;42175;46.930;9.532;2022-12-10T09:38:40;21.70;;;8.63;;
56267;SDS011;42175;46.930;9.532;2022-12-10T09:44:03;20.58;;;7.63;;
56267;SDS011;42175;46.930;9.532;2022-12-10T09:49:29;17.77;;;7.97;;
56267;SDS011;42175;46.930;9.532;2022-12-10T09:52:19;13.90;;;7.78;;
56267;SDS011;42175;46.930;9.532;2022-12-10T09:57:19;17.77;;;7.32;;
56267;SDS011;42175;46.930;9.532;2022-12-10T09:59:59;12.88;;;7.55;;
56267;SDS011;42175;46.930;9.532;2022-12-10T10:02:42;10.90;;;6.63;;
56267;SDS011;42175;46.930;9.532;2022-12-10T10:07:56;15.82;;;7.90;;
56267;SDS011;42175;46.930;9.532;2022-12-10T10:10:27;19.35;;;6.82;;
56267;SDS011;42175;46.930;9.532;2022-12-10T10:15:34;13.70;;;7.82;;
56267;SDS011;42175;46.930;9.532;2022-12-10T10:18:14;12.25;;;7.25;;
56267;SDS011;42175;46.930;9.532;2022-12-10T10:20:42;15.25;;;7.10;;
56267;SDS011;42175;46.930;9.532;2022-12-10T10:23:08;13.02;;;6.90;;
56267;SDS011;42175;46.930;9.532;2022-12-10T10:25:39;12.75;;;6.97;;
56267;SDS011;42175;46.930;9.532;2022-12-10T10:28:04;14.80;;;8.50;;
56267;SDS011;42175;46.930;9.532;2022-12-10T10:30:30;15.95;;;7.88;;
56267;SDS011;42175;46.930;9.532;2022-12-10T10:32:56;15.75;;;7.15;;
56267;SDS011;42175;46.930;9.532;2022-12-10T10:35:32;16.98;;;8.52;;
56267;SDS011;42175;46.930;9.532;2022-12-10T10:38:07;13.15;;;6.97;;
56267;SDS011;42175;46.930;9.532;2022-12-10T10:40:43;13.73;;;7.05;;
56267;SDS011;42175;46.930;9.532;2022-12-10T10:43:24;17.10;;;7.82;;
56267;SDS011;42175;46.930;9.532;2022-12-10T10:46:02;12.98;;;7.32;;
56267;SDS011;42175;46.930;9.532;2022-12-10T10:48:34;14.85;;;7.97;;
56267;SDS011;42175;46.930;9.532;2022-12-10T10:51:33;14.68;;;7.75;;
56267;SDS011;42175;46.930;9.532;2022-12-10T10:53:53;10.15;;;6.68;;
56267;SDS011;42175;46.930;9.532;2022-12-10T10:56:23;14.05;;;7.05;;
56267;SDS011;42175;46.930;9.532;2022-12-10T11:01:18;15.93;;;7.82;;
56267;SDS011;42175;46.930;9.532;2022-12-10T11:03:48;12.77;;;7.80;;
56267;SDS011;42175;46.930;9.532;2022-12-10T11:08:45;17.75;;;8.57;;
56267;SDS011;42175;46.930;9.532;2022-12-10T11:11:17;12.75;;;7.03;;
56267;SDS011;42175;46.930;9.532;2022-12-10T11:13:45;10.88;;;7.47;;
56267;SDS011;42175;46.930;9.532;2022-12-10T11:18:41;11.35;;;6.47;;
56267;SDS011;42175;46.930;9.532;2022-12-10T11:21:17;13.23;;;6.72;;
56267;SDS011;42175;46.930;9.532;2022-12-10T11:23:47;11.05;;;6.40;;
56267;SDS011;42175;46.930;9.532;2022-12-10T11:31:37;9.70;;;6.88;;
56267;SDS011;42175;46.930;9.532;2022-12-10T11:34:13;12.43;;;6.93;;
56267;SDS011;42175;46.930;9.532;2022-12-10T11:42:22;12.00;;;7.07;;
56267;SDS011;42175;46.930;9.532;2022-12-10T11:45:12;14.50;;;6.90;;
56267;SDS011;42175;46.930;9.532;2022-12-10T11:47:59;10.65;;;7.30;;
56267;SDS011;42175;46.930;9.532;2022-12-10T11:53:18;11.35;;;7.03;;
56267;SDS011;42175;46.930;9.532;2022-12-10T11:58:59;13.15;;;6.97;;
56267;SDS011;42175;46.930;9.532;2022-12-10T12:07:57;12.73;;;7.38;;
56267;SDS011;42175;46.930;9.532;2022-12-10T12:13:25;11.27;;;6.72;;
56267;SDS011;42175;46.930;9.532;2022-12-10T12:16:11;11.02;;;6.65;;
56267;SDS011;42175;46.930;9.532;2022-12-10T12:18:46;8.13;;;6.63;;
56267;SDS011;42175;46.930;9.532;2022-12-10T12:21:22;10.75;;;6.55;;
56267;SDS011;42175;46.930;9.532;2022-12-10T12:26:38;11.85;;;6.22;;
56267;SDS011;42175;46.930;9.532;2022-12-10T12:37:09;9.95;;;6.95;;
56267;SDS011;42175;46.930;9.532;2022-12-10T12:39:43;13.10;;;7.70;;
56267;SDS011;42175;46.930;9.532;2022-12-10T12:42:17;12.77;;;6.18;;
56267;SDS011;42175;46.930;9.532;2022-12-10T12:45:06;9.55;;;6.43;;
56267;SDS011;42175;46.930;9.532;2022-12-10T12:47:47;8.88;;;5.55;;
56267;SDS011;42175;46.930;9.532;2022-12-10T12:53:15;9.43;;;6.15;;
56267;SDS011;42175;46.930;9.532;2022-12-10T12:58:47;11.38;;;5.80;;
56267;SDS011;42175;46.930;9.532;2022-12-10T13:09:45;8.68;;;5.60;;
56267;SDS011;42175;46.930;9.532;2022-12-10T13:22:56;8.77;;;5.57;;
56267;SDS011;42175;46.930;9.532;2022-12-10T13:25:38;8.75;;;5.00;;
56267;SDS011;42175;46.930;9.532;2022-12-10T13:41:29;7.18;;;4.90;;
56267;SDS011;42175;46.930;9.532;2022-12-10T13:44:33;8.38;;;5.55;;
56267;SDS011;42175;46.930;9.532;2022-12-10T13:47:04;14.13;;;5.97;;
56267;SDS011;42175;46.930;9.532;2022-12-10T13:49:52;8.85;;;5.22;;
56267;SDS011;42175;46.930;9.532;2022-12-10T13:52:35;8.32;;;5.25;;
56267;SDS011;42175;46.930;9.532;2022-12-10T14:06:24;8.02;;;5.18;;
56267;SDS011;42175;46.930;9.532;2022-12-10T14:11:36;6.68;;;5.22;;
56267;SDS011;42175;46.930;9.532;2022-12-10T14:14:06;12.05;;;5.40;;
56267;SDS011;42175;46.930;9.532;2022-12-10T14:16:38;5.65;;;4.00;;
56267;SDS011;42175;46.930;9.532;2022-12-10T14:19:06;5.85;;;4.32;;
56267;SDS011;42175;46.930;9.532;2022-12-10T14:21:37;9.27;;;4.88;;
56267;SDS011;42175;46.930;9.532;2022-12-10T14:24:06;8.00;;;4.47;;
56267;SDS011;42175;46.930;9.532;2022-12-10T14:29:52;9.95;;;4.35;;
56267;SDS011;42175;46.930;9.532;2022-12-10T14:32:37;8.45;;;4.30;;
56267;SDS011;42175;46.930;9.532;2022-12-10T14:35:05;9.85;;;4.72;;
56267;SDS011;42175;46.930;9.532;2022-12-10T14:37:44;8.93;;;3.88;;
56267;SDS011;42175;46.930;9.532;2022-12-10T14:40:37;11.93;;;4.55;;
56267;SDS011;42175;46.930;9.532;2022-12-10T14:43:05;5.65;;;4.45;;
56267;SDS011;42175;46.930;9.532;2022-12-10T14:45:45;6.47;;;3.72;;
56267;SDS011;42175;46.930;9.532;2022-12-10T14:48:17;7.30;;;4.35;;
56267;SDS011;42175;46.930;9.532;2022-12-10T14:50:46;8.50;;;4.28;;
56267;SDS011;42175;46.930;9.532;2022-12-10T14:53:17;6.00;;;4.25;;
56267;SDS011;42175;46.930;9.532;2022-12-10T14:55:45;8.65;;;4.15;;
56267;SDS011;42175;46.930;9.532;2022-12-10T14:58:18;6.60;;;3.53;;
56267;SDS011;42175;46.930;9.532;2022-12-10T15:00:52;6.32;;;3.53;;
56267;SDS011;42175;46.930;9.532;2022-12-10T15:03:27;7.97;;;3.95;;
56267;SDS011;42175;46.930;9.532;2022-12-10T15:06:00;6.68;;;3.92;;
56267;SDS011;42175;46.930;9.532;2022-12-10T15:08:28;6.13;;;4.00;;
56267;SDS011;42175;46.930;9.532;2022-12-10T15:10:55;5.03;;;3.78;;
56267;SDS011;42175;46.930;9.532;2022-12-10T15:13:33;5.65;;;3.83;;
56267;SDS011;42175;46.930;9.532;2022-12-10T15:16:04;4.43;;;3.50;;
56267;SDS011;42175;46.930;9.532;2022-12-10T15:18:32;5.97;;;3.42;;
56267;SDS011;42175;46.930;9.532;2022-12-10T15:21:10;7.57;;;3.80;;
56267;SDS011;42175;46.930;9.532;2022-12-10T15:23:43;10.88;;;3.20;;
56267;SDS011;42175;46.930;9.532;2022-12-10T15:26:23;7.68;;;4.07;;
56267;SDS011;42175;46.930;9.532;2022-12-10T15:29:14;9.55;;;4.05;;
56267;SDS011;42175;46.930;9.532;2022-12-10T15:31:49;7.57;;;3.60;;
56267;SDS011;42175;46.930;9.532;2022-12-10T15:34:19;9.40;;;3.55;;
56267;SDS011;42175;46.930;9.532;2022-12-10T15:36:52;5.60;;;3.38;;
56267;SDS011;42175;46.930;9.532;2022-12-10T15:42:30;5.78;;;3.50;;
56267;SDS011;42175;46.930;9.532;2022-12-10T15:45:18;6.85;;;3.30;;
56267;SDS011;42175;46.930;9.532;2022-12-10T15:50:16;5.50;;;3.50;;
56267;SDS011;42175;46.930;9.532;2022-12-10T15:52:42;6.22;;;3.30;;
56267;SDS011;42175;46.930;9.532;2022-12-10T15:55:10;5.47;;;3.50;;
56267;SDS011;42175;46.930;9.532;2022-12-10T15:57:38;4.10;;;3.15;;
56267;SDS011;42175;46.930;9.532;2022-12-10T16:00:19;5.40;;;3.17;;
56267;SDS011;42175;46.930;9.532;2022-12-10T16:07:49;8.77;;;3.10;;
56267;SDS011;42175;46.930;9.532;2022-12-10T16:10:17;10.13;;;3.42;;
56267;SDS011;42175;46.930;9.532;2022-12-10T16:12:45;11.68;;;2.97;;
56267;SDS011;42175;46.930;9.532;2022-12-10T16:15:22;12.05;;;3.25;;
56267;SDS011;42175;46.930;9.532;2022-12-10T16:17:50;10.85;;;3.15;;
56267;SDS011;42175;46.930;9.532;2022-12-10T16:20:26;10.20;;;3.25;;
56267;SDS011;42175;46.930;9.532;2022-12-10T16:22:54;6.75;;;3.42;;
56267;SDS011;42175;46.930;9.532;2022-12-10T16:25:21;6.15;;;3.15;;
56267;SDS011;42175;46.930;9.532;2022-12-10T16:27:49;7.78;;;2.90;;
56267;SDS011;42175;46.930;9.532;2022-12-10T16:30:19;7.65;;;2.83;;
56267;SDS011;42175;46.930;9.532;2022-12-10T16:32:45;8.38;;;2.97;;
56267;SDS011;42175;46.930;9.532;2022-12-10T16:35:13;15.60;;;3.10;;
56267;SDS011;42175;46.930;9.532;2022-12-10T16:37:41;7.57;;;2.97;;
56267;SDS011;42175;46.930;9.532;2022-12-10T16:40:12;15.65;;;3.35;;
56267;SDS011;42175;46.930;9.532;2022-12-10T16:42:39;5.63;;;3.35;;
56267;SDS011;42175;46.930;9.532;2022-12-10T16:45:13;12.20;;;2.67;;
56267;SDS011;42175;46.930;9.532;2022-12-10T16:47:44;7.82;;;3.28;;
56267;SDS011;42175;46.930;9.532;2022-12-10T16:50:11;10.60;;;3.60;;
56267;SDS011;42175;46.930;9.532;2022-12-10T16:52:43;11.25;;;4.22;;
56267;SDS011;42175;46.930;9.532;2022-12-10T16:55:21;15.52;;;5.30;;
56267;SDS011;42175;46.930;9.532;2022-12-10T16:57:50;20.25;;;6.88;;
56267;SDS011;42175;46.930;9.532;2022-12-10T17:00:25;20.80;;;6.00;;
56267;SDS011;42175;46.930;9.532;2022-12-10T17:02:53;21.35;;;7.03;;
56267;SDS011;42175;46.930;9.532;2022-12-10T17:05:51;20.33;;;6.97;;
56267;SDS011;42175;46.930;9.532;2022-12-10T17:08:22;28.42;;;7.15;;
56267;SDS011;42175;46.930;9.532;2022-12-10T17:10:49;29.80;;;8.23;;
56267;SDS011;42175;46.930;9.532;2022-12-10T17:13:42;35.20;;;8.90;;